Startpagina
METAR-TAF:

METAR-TAF

Vliegvelden :

Amman, Jordanië

breedte: 31-59N, lengte: 035-59E, hoogte: 767 m

Actueel weer

Dit bericht is 27 minuten geleden gemaakt, om 02:00 UTC
Weinig wind
Temperatuur 14°C
Vochtigheid 51%
Druk 1013 hPa
Zicht: 6000 m
Verspreide wolken op 4500 ft
Verspreide wolken op 5000 ft

METAR: OJAM 310200Z 00000KT 6000 SCT045 SCT050 14/04 Q1013 NOSIG

Tijdstip: 05:27 (02:27 UTC)

Verwachting

Dit bericht is 3 uur en het 27 minuten geleden gemaakt, om 23:00 UTC
Verwachting geldig van 31 om 00 UTC tot 01 om 06 UTC
Wind 2 kt uit variabele richting
Zicht: 6000 m
Wijzigt naar
van 31 om 06 UTC tot 31 om 08 UTC
Wind 12 kt uit het zuidoosten
Zicht: 4000 m
Heiigheid
Kans 30% :
Tijdelijke
van 31 om 08 UTC tot 31 om 18 UTC
Wind 20 kt uit het oostzuidoosten
Zicht: 2000 m
Weinig wolken op 4500 ft
Gebroken wolken op 10000 ft
Stuifstof, lichte regen

TAF: OJAM 302300Z 3100/0106 VRB02KT 6000 NSC BECMG 3106/3108 13012KT 4000 HZ PROB30 TEMPO 3108/3118 11020KT 2000 BLDU -RA FEW045 BKN100

Waarnemingen en weersverwachtingen van meer dan 4000 vliegvelden (METAR en TAF).

De beschikbare stations zijn de gele en rode punten op de kaart.

Ga met uw muis naar het station om de naam te zien.

Klik dan om waarnemingen en weersverwachtingen te zien.

kaart wijzigen: klik op de groene knoppen met een zwart kruis om in te zoomen, op de groene knop met een streepje om uit te zoomen of op de groene pijlen voor aangrenzende kaarten.


METAR-TAF: